sensor_id;sensor_type;location;lat;lon;timestamp;P1;durP1;ratioP1;P2;durP2;ratioP2
3547;SDS011;1788;49.400;11.092;2023-05-29T00:00:37;6.93;;;4.60;;
3547;SDS011;1788;49.400;11.092;2023-05-29T00:03:04;6.70;;;4.50;;
3547;SDS011;1788;49.400;11.092;2023-05-29T00:05:31;5.60;;;4.13;;
3547;SDS011;1788;49.400;11.092;2023-05-29T00:07:58;6.90;;;5.20;;
3547;SDS011;1788;49.400;11.092;2023-05-29T00:10:25;5.90;;;3.90;;
3547;SDS011;1788;49.400;11.092;2023-05-29T00:12:52;6.23;;;3.67;;
3547;SDS011;1788;49.400;11.092;2023-05-29T00:15:18;9.03;;;5.03;;
3547;SDS011;1788;49.400;11.092;2023-05-29T00:17:45;6.67;;;4.20;;
3547;SDS011;1788;49.400;11.092;2023-05-29T00:20:12;4.73;;;4.00;;
3547;SDS011;1788;49.400;11.092;2023-05-29T00:22:40;5.70;;;4.13;;
3547;SDS011;1788;49.400;11.092;2023-05-29T00:25:06;7.57;;;4.50;;
3547;SDS011;1788;49.400;11.092;2023-05-29T00:27:33;5.90;;;4.17;;
3547;SDS011;1788;49.400;11.092;2023-05-29T00:30:00;6.60;;;4.63;;
3547;SDS011;1788;49.400;11.092;2023-05-29T00:32:26;5.87;;;4.70;;
3547;SDS011;1788;49.400;11.092;2023-05-29T00:34:53;6.87;;;4.27;;
3547;SDS011;1788;49.400;11.092;2023-05-29T00:37:20;8.57;;;4.37;;
3547;SDS011;1788;49.400;11.092;2023-05-29T00:39:47;6.60;;;4.30;;
3547;SDS011;1788;49.400;11.092;2023-05-29T00:42:14;7.23;;;4.17;;
3547;SDS011;1788;49.400;11.092;2023-05-29T00:44:41;4.80;;;4.53;;
3547;SDS011;1788;49.400;11.092;2023-05-29T00:47:08;7.70;;;4.13;;
3547;SDS011;1788;49.400;11.092;2023-05-29T00:49:35;7.10;;;4.83;;
3547;SDS011;1788;49.400;11.092;2023-05-29T00:52:01;5.97;;;4.37;;
3547;SDS011;1788;49.400;11.092;2023-05-29T00:54:29;7.13;;;4.77;;
3547;SDS011;1788;49.400;11.092;2023-05-29T00:56:56;6.17;;;5.10;;
3547;SDS011;1788;49.400;11.092;2023-05-29T00:59:22;4.87;;;4.20;;
3547;SDS011;1788;49.400;11.092;2023-05-29T01:01:49;7.70;;;4.43;;
3547;SDS011;1788;49.400;11.092;2023-05-29T01:04:16;7.13;;;4.93;;
3547;SDS011;1788;49.400;11.092;2023-05-29T01:06:42;7.80;;;5.10;;
3547;SDS011;1788;49.400;11.092;2023-05-29T01:09:09;10.70;;;5.30;;
3547;SDS011;1788;49.400;11.092;2023-05-29T01:11:37;6.10;;;4.87;;
3547;SDS011;1788;49.400;11.092;2023-05-29T01:14:05;8.53;;;5.33;;
3547;SDS011;1788;49.400;11.092;2023-05-29T01:21:26;8.07;;;5.23;;
3547;SDS011;1788;49.400;11.092;2023-05-29T01:26:20;7.90;;;5.60;;
3547;SDS011;1788;49.400;11.092;2023-05-29T01:31:10;7.10;;;5.47;;
3547;SDS011;1788;49.400;11.092;2023-05-29T01:36:03;7.60;;;5.20;;
3547;SDS011;1788;49.400;11.092;2023-05-29T01:38:30;6.50;;;5.00;;
3547;SDS011;1788;49.400;11.092;2023-05-29T01:40:57;8.17;;;5.80;;
3547;SDS011;1788;49.400;11.092;2023-05-29T01:43:24;7.60;;;5.27;;
3547;SDS011;1788;49.400;11.092;2023-05-29T01:45:51;6.23;;;5.60;;
3547;SDS011;1788;49.400;11.092;2023-05-29T01:48:18;7.23;;;5.67;;
3547;SDS011;1788;49.400;11.092;2023-05-29T01:50:45;7.00;;;4.63;;
3547;SDS011;1788;49.400;11.092;2023-05-29T01:53:12;6.73;;;4.83;;
3547;SDS011;1788;49.400;11.092;2023-05-29T01:55:39;7.77;;;5.07;;
3547;SDS011;1788;49.400;11.092;2023-05-29T01:58:06;7.67;;;5.23;;
3547;SDS011;1788;49.400;11.092;2023-05-29T02:00:33;6.63;;;5.03;;
3547;SDS011;1788;49.400;11.092;2023-05-29T02:03:00;7.60;;;5.50;;
3547;SDS011;1788;49.400;11.092;2023-05-29T02:05:28;10.33;;;5.40;;
3547;SDS011;1788;49.400;11.092;2023-05-29T02:07:55;8.30;;;5.00;;
3547;SDS011;1788;49.400;11.092;2023-05-29T02:10:22;6.77;;;5.00;;
3547;SDS011;1788;49.400;11.092;2023-05-29T02:12:49;8.20;;;4.67;;
3547;SDS011;1788;49.400;11.092;2023-05-29T02:15:16;7.77;;;4.73;;
3547;SDS011;1788;49.400;11.092;2023-05-29T02:17:43;5.50;;;4.37;;
3547;SDS011;1788;49.400;11.092;2023-05-29T02:20:10;8.27;;;5.00;;
3547;SDS011;1788;49.400;11.092;2023-05-29T02:22:36;7.00;;;4.87;;
3547;SDS011;1788;49.400;11.092;2023-05-29T02:25:03;7.03;;;4.40;;
3547;SDS011;1788;49.400;11.092;2023-05-29T02:27:29;8.07;;;5.17;;
3547;SDS011;1788;49.400;11.092;2023-05-29T02:29:57;8.93;;;5.20;;
3547;SDS011;1788;49.400;11.092;2023-05-29T02:32:24;5.13;;;4.30;;
3547;SDS011;1788;49.400;11.092;2023-05-29T02:34:52;7.53;;;4.13;;
3547;SDS011;1788;49.400;11.092;2023-05-29T02:37:18;6.60;;;4.00;;
3547;SDS011;1788;49.400;11.092;2023-05-29T02:39:45;5.67;;;4.43;;
3547;SDS011;1788;49.400;11.092;2023-05-29T02:42:12;6.17;;;4.60;;
3547;SDS011;1788;49.400;11.092;2023-05-29T02:44:38;4.97;;;4.10;;
3547;SDS011;1788;49.400;11.092;2023-05-29T02:47:05;5.93;;;4.77;;
3547;SDS011;1788;49.400;11.092;2023-05-29T02:49:31;6.30;;;4.60;;
3547;SDS011;1788;49.400;11.092;2023-05-29T02:51:58;6.40;;;4.47;;
3547;SDS011;1788;49.400;11.092;2023-05-29T02:54:26;6.53;;;4.70;;
3547;SDS011;1788;49.400;11.092;2023-05-29T02:56:52;6.00;;;4.33;;
3547;SDS011;1788;49.400;11.092;2023-05-29T02:59:19;6.23;;;4.70;;
3547;SDS011;1788;49.400;11.092;2023-05-29T03:01:45;7.93;;;5.27;;
3547;SDS011;1788;49.400;11.092;2023-05-29T03:04:12;7.37;;;4.80;;
3547;SDS011;1788;49.400;11.092;2023-05-29T03:06:39;6.17;;;4.43;;
3547;SDS011;1788;49.400;11.092;2023-05-29T03:09:07;7.37;;;4.53;;
3547;SDS011;1788;49.400;11.092;2023-05-29T03:11:33;4.77;;;4.50;;
3547;SDS011;1788;49.400;11.092;2023-05-29T03:14:00;5.53;;;4.20;;
3547;SDS011;1788;49.400;11.092;2023-05-29T03:16:27;6.30;;;4.77;;
3547;SDS011;1788;49.400;11.092;2023-05-29T03:18:53;5.50;;;4.33;;
3547;SDS011;1788;49.400;11.092;2023-05-29T03:21:20;5.37;;;4.30;;
3547;SDS011;1788;49.400;11.092;2023-05-29T03:23:47;6.10;;;4.57;;
3547;SDS011;1788;49.400;11.092;2023-05-29T03:26:13;7.03;;;4.80;;
3547;SDS011;1788;49.400;11.092;2023-05-29T03:28:41;6.67;;;4.90;;
3547;SDS011;1788;49.400;11.092;2023-05-29T03:31:08;7.90;;;5.00;;
3547;SDS011;1788;49.400;11.092;2023-05-29T03:33:35;5.90;;;4.33;;
3547;SDS011;1788;49.400;11.092;2023-05-29T03:36:01;8.03;;;5.03;;
3547;SDS011;1788;49.400;11.092;2023-05-29T03:38:28;7.30;;;5.50;;
3547;SDS011;1788;49.400;11.092;2023-05-29T03:40:54;5.43;;;4.80;;
3547;SDS011;1788;49.400;11.092;2023-05-29T03:43:21;6.47;;;4.67;;
3547;SDS011;1788;49.400;11.092;2023-05-29T03:45:48;6.83;;;4.70;;
3547;SDS011;1788;49.400;11.092;2023-05-29T03:48:15;5.33;;;5.00;;
3547;SDS011;1788;49.400;11.092;2023-05-29T03:50:44;5.63;;;4.57;;
3547;SDS011;1788;49.400;11.092;2023-05-29T03:53:09;7.27;;;5.17;;
3547;SDS011;1788;49.400;11.092;2023-05-29T03:55:37;6.53;;;4.77;;
3547;SDS011;1788;49.400;11.092;2023-05-29T03:58:04;6.67;;;4.37;;
3547;SDS011;1788;49.400;11.092;2023-05-29T04:00:31;8.87;;;5.50;;
3547;SDS011;1788;49.400;11.092;2023-05-29T04:02:57;7.10;;;4.63;;
3547;SDS011;1788;49.400;11.092;2023-05-29T04:05:24;6.23;;;4.70;;
3547;SDS011;1788;49.400;11.092;2023-05-29T04:07:52;9.17;;;5.70;;
3547;SDS011;1788;49.400;11.092;2023-05-29T04:10:18;9.60;;;5.43;;
3547;SDS011;1788;49.400;11.092;2023-05-29T04:12:45;6.63;;;4.80;;
3547;SDS011;1788;49.400;11.092;2023-05-29T04:15:12;7.67;;;4.83;;
3547;SDS011;1788;49.400;11.092;2023-05-29T04:17:39;7.90;;;5.33;;
3547;SDS011;1788;49.400;11.092;2023-05-29T04:20:06;8.13;;;4.50;;
3547;SDS011;1788;49.400;11.092;2023-05-29T04:22:33;8.47;;;5.03;;
3547;SDS011;1788;49.400;11.092;2023-05-29T04:24:59;8.57;;;5.00;;
3547;SDS011;1788;49.400;11.092;2023-05-29T04:27:26;9.33;;;5.33;;
3547;SDS011;1788;49.400;11.092;2023-05-29T04:29:53;8.13;;;5.47;;
3547;SDS011;1788;49.400;11.092;2023-05-29T04:32:20;5.93;;;4.60;;
3547;SDS011;1788;49.400;11.092;2023-05-29T04:34:46;5.40;;;4.67;;
3547;SDS011;1788;49.400;11.092;2023-05-29T04:37:13;6.80;;;4.47;;
3547;SDS011;1788;49.400;11.092;2023-05-29T04:39:40;6.10;;;4.67;;
3547;SDS011;1788;49.400;11.092;2023-05-29T04:42:07;5.17;;;4.57;;
3547;SDS011;1788;49.400;11.092;2023-05-29T04:44:34;8.27;;;5.03;;
3547;SDS011;1788;49.400;11.092;2023-05-29T04:47:01;7.20;;;4.93;;
3547;SDS011;1788;49.400;11.092;2023-05-29T04:49:29;8.80;;;5.30;;
3547;SDS011;1788;49.400;11.092;2023-05-29T04:51:56;6.60;;;4.87;;
3547;SDS011;1788;49.400;11.092;2023-05-29T04:54:23;6.77;;;5.10;;
3547;SDS011;1788;49.400;11.092;2023-05-29T04:56:49;8.80;;;4.87;;
3547;SDS011;1788;49.400;11.092;2023-05-29T04:59:17;6.20;;;4.90;;
3547;SDS011;1788;49.400;11.092;2023-05-29T05:01:43;7.30;;;5.70;;
3547;SDS011;1788;49.400;11.092;2023-05-29T05:04:10;6.80;;;5.83;;
3547;SDS011;1788;49.400;11.092;2023-05-29T05:06:36;7.30;;;4.90;;
3547;SDS011;1788;49.400;11.092;2023-05-29T05:09:04;7.63;;;5.20;;
3547;SDS011;1788;49.400;11.092;2023-05-29T05:11:31;9.53;;;5.37;;
3547;SDS011;1788;49.400;11.092;2023-05-29T05:13:57;6.03;;;4.40;;
3547;SDS011;1788;49.400;11.092;2023-05-29T05:16:24;8.40;;;4.90;;
3547;SDS011;1788;49.400;11.092;2023-05-29T05:18:51;6.97;;;4.47;;
3547;SDS011;1788;49.400;11.092;2023-05-29T05:21:18;7.13;;;4.63;;
3547;SDS011;1788;49.400;11.092;2023-05-29T05:23:45;4.40;;;3.80;;
3547;SDS011;1788;49.400;11.092;2023-05-29T05:26:12;6.07;;;4.53;;
3547;SDS011;1788;49.400;11.092;2023-05-29T05:28:38;9.27;;;4.67;;
3547;SDS011;1788;49.400;11.092;2023-05-29T05:31:06;8.53;;;4.30;;
3547;SDS011;1788;49.400;11.092;2023-05-29T05:33:32;5.50;;;4.20;;
3547;SDS011;1788;49.400;11.092;2023-05-29T05:36:00;5.07;;;4.10;;
3547;SDS011;1788;49.400;11.092;2023-05-29T05:38:27;5.93;;;4.03;;
3547;SDS011;1788;49.400;11.092;2023-05-29T05:40:54;5.27;;;3.83;;
3547;SDS011;1788;49.400;11.092;2023-05-29T05:43:21;5.30;;;4.00;;
3547;SDS011;1788;49.400;11.092;2023-05-29T05:45:47;5.93;;;3.90;;
3547;SDS011;1788;49.400;11.092;2023-05-29T05:48:14;6.13;;;3.87;;
3547;SDS011;1788;49.400;11.092;2023-05-29T05:50:40;7.33;;;4.10;;
3547;SDS011;1788;49.400;11.092;2023-05-29T05:53:07;6.83;;;4.47;;
3547;SDS011;1788;49.400;11.092;2023-05-29T05:55:34;6.53;;;4.33;;
3547;SDS011;1788;49.400;11.092;2023-05-29T05:58:02;3.97;;;3.70;;
3547;SDS011;1788;49.400;11.092;2023-05-29T06:00:29;6.20;;;4.07;;
3547;SDS011;1788;49.400;11.092;2023-05-29T06:02:56;5.73;;;4.00;;
3547;SDS011;1788;49.400;11.092;2023-05-29T06:05:23;4.27;;;3.93;;
3547;SDS011;1788;49.400;11.092;2023-05-29T06:07:51;5.30;;;4.07;;
3547;SDS011;1788;49.400;11.092;2023-05-29T06:10:17;7.30;;;3.90;;
3547;SDS011;1788;49.400;11.092;2023-05-29T06:12:44;5.97;;;3.77;;
3547;SDS011;1788;49.400;11.092;2023-05-29T06:15:11;3.70;;;3.40;;
3547;SDS011;1788;49.400;11.092;2023-05-29T06:17:40;4.00;;;3.53;;
3547;SDS011;1788;49.400;11.092;2023-05-29T06:20:06;3.90;;;3.33;;
3547;SDS011;1788;49.400;11.092;2023-05-29T06:22:33;5.87;;;3.60;;
3547;SDS011;1788;49.400;11.092;2023-05-29T06:25:01;5.00;;;4.27;;
3547;SDS011;1788;49.400;11.092;2023-05-29T06:27:29;4.60;;;3.63;;
3547;SDS011;1788;49.400;11.092;2023-05-29T06:29:56;5.37;;;3.63;;
3547;SDS011;1788;49.400;11.092;2023-05-29T06:32:23;5.37;;;3.97;;
3547;SDS011;1788;49.400;11.092;2023-05-29T06:34:49;4.40;;;3.60;;
3547;SDS011;1788;49.400;11.092;2023-05-29T06:37:17;4.97;;;3.60;;
3547;SDS011;1788;49.400;11.092;2023-05-29T06:39:44;5.07;;;3.83;;
3547;SDS011;1788;49.400;11.092;2023-05-29T06:42:10;4.13;;;3.90;;
3547;SDS011;1788;49.400;11.092;2023-05-29T06:44:38;6.00;;;3.10;;
3547;SDS011;1788;49.400;11.092;2023-05-29T06:47:05;6.90;;;3.47;;
3547;SDS011;1788;49.400;11.092;2023-05-29T06:49:31;5.67;;;3.23;;
3547;SDS011;1788;49.400;11.092;2023-05-29T06:51:58;3.63;;;2.90;;
3547;SDS011;1788;49.400;11.092;2023-05-29T06:54:25;4.50;;;3.43;;
3547;SDS011;1788;49.400;11.092;2023-05-29T06:56:51;6.00;;;3.80;;
3547;SDS011;1788;49.400;11.092;2023-05-29T06:59:19;5.77;;;3.80;;
3547;SDS011;1788;49.400;11.092;2023-05-29T07:01:45;5.57;;;3.57;;
3547;SDS011;1788;49.400;11.092;2023-05-29T07:04:13;3.63;;;3.43;;
3547;SDS011;1788;49.400;11.092;2023-05-29T07:06:40;5.00;;;3.47;;
3547;SDS011;1788;49.400;11.092;2023-05-29T07:09:07;3.27;;;3.10;;
3547;SDS011;1788;49.400;11.092;2023-05-29T07:11:33;4.20;;;3.23;;
3547;SDS011;1788;49.400;11.092;2023-05-29T07:14:00;3.00;;;2.90;;
3547;SDS011;1788;49.400;11.092;2023-05-29T07:16:26;4.03;;;3.67;;
3547;SDS011;1788;49.400;11.092;2023-05-29T07:18:53;3.50;;;3.10;;
3547;SDS011;1788;49.400;11.092;2023-05-29T07:21:21;4.77;;;3.37;;
3547;SDS011;1788;49.400;11.092;2023-05-29T07:23:48;5.30;;;3.40;;
3547;SDS011;1788;49.400;11.092;2023-05-29T07:26:15;3.37;;;3.23;;
3547;SDS011;1788;49.400;11.092;2023-05-29T07:28:42;4.37;;;3.53;;
3547;SDS011;1788;49.400;11.092;2023-05-29T07:31:09;4.90;;;3.77;;
3547;SDS011;1788;49.400;11.092;2023-05-29T07:33:39;6.43;;;3.67;;
3547;SDS011;1788;49.400;11.092;2023-05-29T07:36:05;5.07;;;3.13;;
3547;SDS011;1788;49.400;11.092;2023-05-29T07:38:32;3.13;;;2.97;;
3547;SDS011;1788;49.400;11.092;2023-05-29T07:41:00;4.67;;;3.07;;
3547;SDS011;1788;49.400;11.092;2023-05-29T07:43:27;3.63;;;3.00;;
3547;SDS011;1788;49.400;11.092;2023-05-29T07:45:54;3.73;;;3.27;;
3547;SDS011;1788;49.400;11.092;2023-05-29T07:48:21;4.20;;;3.47;;
3547;SDS011;1788;49.400;11.092;2023-05-29T07:50:47;4.43;;;3.50;;
3547;SDS011;1788;49.400;11.092;2023-05-29T07:53:14;5.23;;;3.53;;
3547;SDS011;1788;49.400;11.092;2023-05-29T07:55:40;4.63;;;3.50;;
3547;SDS011;1788;49.400;11.092;2023-05-29T07:58:08;3.83;;;3.63;;
3547;SDS011;1788;49.400;11.092;2023-05-29T08:00:34;3.30;;;3.10;;
3547;SDS011;1788;49.400;11.092;2023-05-29T08:03:04;3.80;;;3.10;;
3547;SDS011;1788;49.400;11.092;2023-05-29T08:05:30;4.53;;;3.37;;
3547;SDS011;1788;49.400;11.092;2023-05-29T08:07:58;4.03;;;3.77;;
3547;SDS011;1788;49.400;11.092;2023-05-29T08:10:24;4.00;;;2.73;;
3547;SDS011;1788;49.400;11.092;2023-05-29T08:12:52;3.30;;;2.93;;
3547;SDS011;1788;49.400;11.092;2023-05-29T08:15:19;5.47;;;3.10;;
3547;SDS011;1788;49.400;11.092;2023-05-29T08:17:45;3.63;;;3.07;;
3547;SDS011;1788;49.400;11.092;2023-05-29T08:20:11;3.67;;;2.87;;
3547;SDS011;1788;49.400;11.092;2023-05-29T08:22:38;3.67;;;3.23;;
3547;SDS011;1788;49.400;11.092;2023-05-29T08:25:06;4.17;;;3.00;;
3547;SDS011;1788;49.400;11.092;2023-05-29T08:27:32;5.07;;;2.97;;
3547;SDS011;1788;49.400;11.092;2023-05-29T08:29:59;4.37;;;3.37;;
3547;SDS011;1788;49.400;11.092;2023-05-29T08:32:26;4.33;;;3.47;;
3547;SDS011;1788;49.400;11.092;2023-05-29T08:34:53;3.40;;;2.70;;
3547;SDS011;1788;49.400;11.092;2023-05-29T08:37:20;4.60;;;3.00;;
3547;SDS011;1788;49.400;11.092;2023-05-29T08:39:47;4.23;;;3.23;;
3547;SDS011;1788;49.400;11.092;2023-05-29T08:42:17;3.13;;;2.60;;
3547;SDS011;1788;49.400;11.092;2023-05-29T08:44:40;2.97;;;2.77;;
3547;SDS011;1788;49.400;11.092;2023-05-29T08:47:07;3.63;;;2.83;;
3547;SDS011;1788;49.400;11.092;2023-05-29T08:49:40;3.30;;;2.80;;
3547;SDS011;1788;49.400;11.092;2023-05-29T08:52:03;4.33;;;3.30;;
3547;SDS011;1788;49.400;11.092;2023-05-29T08:54:30;4.47;;;3.10;;
3547;SDS011;1788;49.400;11.092;2023-05-29T08:56:55;4.10;;;3.10;;
3547;SDS011;1788;49.400;11.092;2023-05-29T08:59:23;3.20;;;3.00;;
3547;SDS011;1788;49.400;11.092;2023-05-29T09:01:50;3.30;;;3.10;;
3547;SDS011;1788;49.400;11.092;2023-05-29T09:04:16;3.83;;;2.97;;
3547;SDS011;1788;49.400;11.092;2023-05-29T09:06:44;4.83;;;3.00;;
3547;SDS011;1788;49.400;11.092;2023-05-29T09:09:09;4.67;;;3.27;;
3547;SDS011;1788;49.400;11.092;2023-05-29T09:11:36;5.60;;;3.33;;
3547;SDS011;1788;49.400;11.092;2023-05-29T09:14:03;4.73;;;2.80;;
3547;SDS011;1788;49.400;11.092;2023-05-29T09:16:29;5.30;;;3.80;;
3547;SDS011;1788;49.400;11.092;2023-05-29T09:23:51;4.30;;;3.00;;
3547;SDS011;1788;49.400;11.092;2023-05-29T09:26:17;3.30;;;3.10;;
3547;SDS011;1788;49.400;11.092;2023-05-29T09:28:45;3.63;;;2.87;;
3547;SDS011;1788;49.400;11.092;2023-05-29T09:33:46;2.97;;;2.60;;
3547;SDS011;1788;49.400;11.092;2023-05-29T09:36:04;4.30;;;2.87;;
3547;SDS011;1788;49.400;11.092;2023-05-29T09:38:31;6.37;;;3.47;;
3547;SDS011;1788;49.400;11.092;2023-05-29T09:40:58;3.80;;;3.33;;
3547;SDS011;1788;49.400;11.092;2023-05-29T09:43:24;4.47;;;3.13;;
3547;SDS011;1788;49.400;11.092;2023-05-29T09:45:51;4.03;;;3.50;;
3547;SDS011;1788;49.400;11.092;2023-05-29T09:48:18;3.20;;;2.70;;
3547;SDS011;1788;49.400;11.092;2023-05-29T09:50:45;3.17;;;2.53;;
3547;SDS011;1788;49.400;11.092;2023-05-29T09:55:40;4.40;;;3.57;;
3547;SDS011;1788;49.400;11.092;2023-05-29T09:58:06;3.87;;;3.50;;
3547;SDS011;1788;49.400;11.092;2023-05-29T10:00:34;5.40;;;3.63;;
3547;SDS011;1788;49.400;11.092;2023-05-29T10:03:00;5.23;;;3.23;;
3547;SDS011;1788;49.400;11.092;2023-05-29T10:05:28;3.73;;;3.30;;
3547;SDS011;1788;49.400;11.092;2023-05-29T10:07:55;3.53;;;3.10;;
3547;SDS011;1788;49.400;11.092;2023-05-29T10:10:23;4.60;;;2.70;;
3547;SDS011;1788;49.400;11.092;2023-05-29T10:12:50;6.57;;;3.37;;
3547;SDS011;1788;49.400;11.092;2023-05-29T10:15:17;2.90;;;2.37;;
3547;SDS011;1788;49.400;11.092;2023-05-29T10:20:11;3.47;;;3.30;;
3547;SDS011;1788;49.400;11.092;2023-05-29T10:22:40;3.33;;;2.63;;
3547;SDS011;1788;49.400;11.092;2023-05-29T10:25:08;3.47;;;3.27;;
3547;SDS011;1788;49.400;11.092;2023-05-29T10:27:34;6.03;;;3.40;;
3547;SDS011;1788;49.400;11.092;2023-05-29T10:39:48;4.47;;;2.60;;
3547;SDS011;1788;49.400;11.092;2023-05-29T10:44:43;2.97;;;2.77;;
3547;SDS011;1788;49.400;11.092;2023-05-29T10:47:10;4.13;;;3.17;;
3547;SDS011;1788;49.400;11.092;2023-05-29T10:49:37;3.37;;;2.80;;
3547;SDS011;1788;49.400;11.092;2023-05-29T10:52:05;3.80;;;2.83;;
3547;SDS011;1788;49.400;11.092;2023-05-29T10:54:39;2.77;;;2.33;;
3547;SDS011;1788;49.400;11.092;2023-05-29T10:57:00;5.80;;;2.80;;
3547;SDS011;1788;49.400;11.092;2023-05-29T10:59:27;4.03;;;2.40;;
3547;SDS011;1788;49.400;11.092;2023-05-29T11:01:54;3.13;;;2.60;;
3547;SDS011;1788;49.400;11.092;2023-05-29T11:04:27;3.30;;;2.70;;
3547;SDS011;1788;49.400;11.092;2023-05-29T11:06:47;3.03;;;2.60;;
3547;SDS011;1788;49.400;11.092;2023-05-29T11:14:09;2.40;;;2.20;;
3547;SDS011;1788;49.400;11.092;2023-05-29T11:16:36;3.93;;;2.57;;
3547;SDS011;1788;49.400;11.092;2023-05-29T11:19:04;2.93;;;2.73;;
3547;SDS011;1788;49.400;11.092;2023-05-29T11:21:31;3.00;;;2.43;;
3547;SDS011;1788;49.400;11.092;2023-05-29T11:26:25;3.00;;;2.47;;
3547;SDS011;1788;49.400;11.092;2023-05-29T11:28:52;4.10;;;2.47;;
3547;SDS011;1788;49.400;11.092;2023-05-29T11:31:19;3.43;;;2.53;;
3547;SDS011;1788;49.400;11.092;2023-05-29T11:33:47;4.63;;;2.57;;
3547;SDS011;1788;49.400;11.092;2023-05-29T11:36:13;2.73;;;2.40;;
3547;SDS011;1788;49.400;11.092;2023-05-29T11:38:41;4.77;;;2.73;;
3547;SDS011;1788;49.400;11.092;2023-05-29T11:41:08;4.23;;;2.87;;
3547;SDS011;1788;49.400;11.092;2023-05-29T11:43:34;2.43;;;2.23;;
3547;SDS011;1788;49.400;11.092;2023-05-29T11:46:02;3.23;;;2.60;;
3547;SDS011;1788;49.400;11.092;2023-05-29T11:48:28;5.53;;;2.87;;
3547;SDS011;1788;49.400;11.092;2023-05-29T11:50:54;2.73;;;2.30;;
3547;SDS011;1788;49.400;11.092;2023-05-29T11:53:21;4.33;;;2.77;;
3547;SDS011;1788;49.400;11.092;2023-05-29T11:55:48;4.23;;;2.47;;
3547;SDS011;1788;49.400;11.092;2023-05-29T11:58:14;4.13;;;2.63;;
3547;SDS011;1788;49.400;11.092;2023-05-29T12:00:41;2.90;;;2.33;;
3547;SDS011;1788;49.400;11.092;2023-05-29T12:03:08;3.70;;;2.30;;
3547;SDS011;1788;49.400;11.092;2023-05-29T12:08:03;3.60;;;2.73;;
3547;SDS011;1788;49.400;11.092;2023-05-29T12:10:29;2.63;;;2.43;;
3547;SDS011;1788;49.400;11.092;2023-05-29T12:12:58;3.83;;;2.80;;
3547;SDS011;1788;49.400;11.092;2023-05-29T12:15:23;2.83;;;2.13;;
3547;SDS011;1788;49.400;11.092;2023-05-29T12:17:50;3.17;;;2.20;;
3547;SDS011;1788;49.400;11.092;2023-05-29T12:20:16;3.63;;;2.70;;
3547;SDS011;1788;49.400;11.092;2023-05-29T12:22:43;4.50;;;2.53;;
3547;SDS011;1788;49.400;11.092;2023-05-29T12:25:10;3.17;;;2.40;;
3547;SDS011;1788;49.400;11.092;2023-05-29T12:27:37;4.40;;;2.43;;
3547;SDS011;1788;49.400;11.092;2023-05-29T12:30:02;2.67;;;2.13;;
3547;SDS011;1788;49.400;11.092;2023-05-29T12:34:56;2.87;;;2.30;;
3547;SDS011;1788;49.400;11.092;2023-05-29T12:37:23;2.60;;;2.10;;
3547;SDS011;1788;49.400;11.092;2023-05-29T12:42:17;2.57;;;2.10;;
3547;SDS011;1788;49.400;11.092;2023-05-29T12:44:44;2.87;;;2.67;;
3547;SDS011;1788;49.400;11.092;2023-05-29T12:47:13;2.90;;;2.53;;
3547;SDS011;1788;49.400;11.092;2023-05-29T12:49:38;3.07;;;2.17;;
3547;SDS011;1788;49.400;11.092;2023-05-29T12:52:05;3.47;;;2.67;;
3547;SDS011;1788;49.400;11.092;2023-05-29T12:54:32;2.97;;;2.67;;
3547;SDS011;1788;49.400;11.092;2023-05-29T12:56:59;2.37;;;2.10;;
3547;SDS011;1788;49.400;11.092;2023-05-29T12:59:25;4.50;;;2.87;;
3547;SDS011;1788;49.400;11.092;2023-05-29T13:01:53;3.50;;;2.40;;
3547;SDS011;1788;49.400;11.092;2023-05-29T13:04:19;5.23;;;2.50;;
3547;SDS011;1788;49.400;11.092;2023-05-29T13:06:46;3.00;;;2.23;;
3547;SDS011;1788;49.400;11.092;2023-05-29T13:09:13;2.87;;;2.70;;
3547;SDS011;1788;49.400;11.092;2023-05-29T13:11:39;4.17;;;2.60;;
3547;SDS011;1788;49.400;11.092;2023-05-29T13:14:06;3.20;;;2.70;;
3547;SDS011;1788;49.400;11.092;2023-05-29T13:16:33;4.10;;;3.00;;
3547;SDS011;1788;49.400;11.092;2023-05-29T13:19:00;2.93;;;2.60;;
3547;SDS011;1788;49.400;11.092;2023-05-29T13:21:27;4.53;;;2.50;;
3547;SDS011;1788;49.400;11.092;2023-05-29T13:23:54;3.97;;;2.80;;
3547;SDS011;1788;49.400;11.092;2023-05-29T13:26:20;2.53;;;2.33;;
3547;SDS011;1788;49.400;11.092;2023-05-29T13:28:47;2.80;;;2.20;;
3547;SDS011;1788;49.400;11.092;2023-05-29T13:31:14;2.30;;;2.10;;
3547;SDS011;1788;49.400;11.092;2023-05-29T13:33:41;4.07;;;2.80;;
3547;SDS011;1788;49.400;11.092;2023-05-29T13:36:09;2.80;;;2.07;;
3547;SDS011;1788;49.400;11.092;2023-05-29T13:38:36;3.47;;;2.30;;
3547;SDS011;1788;49.400;11.092;2023-05-29T13:41:04;5.17;;;2.47;;
3547;SDS011;1788;49.400;11.092;2023-05-29T13:43:31;3.10;;;2.60;;
3547;SDS011;1788;49.400;11.092;2023-05-29T13:45:58;2.47;;;2.27;;
3547;SDS011;1788;49.400;11.092;2023-05-29T13:48:24;2.83;;;2.67;;
3547;SDS011;1788;49.400;11.092;2023-05-29T13:50:51;4.23;;;2.87;;
3547;SDS011;1788;49.400;11.092;2023-05-29T13:53:18;2.93;;;2.37;;
3547;SDS011;1788;49.400;11.092;2023-05-29T13:55:45;2.43;;;2.10;;
3547;SDS011;1788;49.400;11.092;2023-05-29T13:58:13;2.97;;;2.27;;
3547;SDS011;1788;49.400;11.092;2023-05-29T14:00:40;3.30;;;3.07;;
3547;SDS011;1788;49.400;11.092;2023-05-29T14:03:07;2.77;;;2.57;;
3547;SDS011;1788;49.400;11.092;2023-05-29T14:05:34;3.23;;;2.50;;
3547;SDS011;1788;49.400;11.092;2023-05-29T14:08:01;2.97;;;2.70;;
3547;SDS011;1788;49.400;11.092;2023-05-29T14:10:27;3.77;;;2.67;;
3547;SDS011;1788;49.400;11.092;2023-05-29T14:12:55;2.50;;;2.33;;
3547;SDS011;1788;49.400;11.092;2023-05-29T14:15:21;3.33;;;2.80;;
3547;SDS011;1788;49.400;11.092;2023-05-29T14:17:48;2.37;;;2.10;;
3547;SDS011;1788;49.400;11.092;2023-05-29T14:20:15;3.03;;;2.83;;
3547;SDS011;1788;49.400;11.092;2023-05-29T14:22:41;3.83;;;2.57;;
3547;SDS011;1788;49.400;11.092;2023-05-29T14:25:08;4.30;;;2.83;;
3547;SDS011;1788;49.400;11.092;2023-05-29T14:27:35;3.20;;;2.53;;
3547;SDS011;1788;49.400;11.092;2023-05-29T14:30:02;2.77;;;2.20;;
3547;SDS011;1788;49.400;11.092;2023-05-29T14:32:29;2.80;;;2.53;;
3547;SDS011;1788;49.400;11.092;2023-05-29T14:34:56;3.90;;;3.00;;
3547;SDS011;1788;49.400;11.092;2023-05-29T14:37:23;2.60;;;2.30;;
3547;SDS011;1788;49.400;11.092;2023-05-29T14:39:49;2.37;;;2.17;;
3547;SDS011;1788;49.400;11.092;2023-05-29T14:42:16;3.33;;;2.50;;
3547;SDS011;1788;49.400;11.092;2023-05-29T14:44:43;3.80;;;2.93;;
3547;SDS011;1788;49.400;11.092;2023-05-29T14:47:10;3.47;;;2.97;;
3547;SDS011;1788;49.400;11.092;2023-05-29T14:49:36;2.63;;;2.43;;
3547;SDS011;1788;49.400;11.092;2023-05-29T14:52:03;3.67;;;2.43;;
3547;SDS011;1788;49.400;11.092;2023-05-29T14:54:30;4.73;;;2.70;;
3547;SDS011;1788;49.400;11.092;2023-05-29T14:56:57;3.83;;;2.60;;
3547;SDS011;1788;49.400;11.092;2023-05-29T14:59:23;3.40;;;2.77;;
3547;SDS011;1788;49.400;11.092;2023-05-29T15:01:50;2.73;;;2.53;;
3547;SDS011;1788;49.400;11.092;2023-05-29T15:04:17;3.67;;;2.90;;
3547;SDS011;1788;49.400;11.092;2023-05-29T15:06:44;2.87;;;2.67;;
3547;SDS011;1788;49.400;11.092;2023-05-29T15:09:11;2.50;;;2.33;;
3547;SDS011;1788;49.400;11.092;2023-05-29T15:11:38;4.13;;;2.90;;
3547;SDS011;1788;49.400;11.092;2023-05-29T15:14:05;3.67;;;2.30;;
3547;SDS011;1788;49.400;11.092;2023-05-29T15:16:32;4.23;;;3.10;;
3547;SDS011;1788;49.400;11.092;2023-05-29T15:18:59;3.60;;;2.70;;
3547;SDS011;1788;49.400;11.092;2023-05-29T15:21:27;3.77;;;2.37;;
3547;SDS011;1788;49.400;11.092;2023-05-29T15:23:53;4.70;;;2.80;;
3547;SDS011;1788;49.400;11.092;2023-05-29T15:26:21;3.90;;;2.33;;
3547;SDS011;1788;49.400;11.092;2023-05-29T15:28:49;4.27;;;2.73;;
3547;SDS011;1788;49.400;11.092;2023-05-29T15:31:15;3.67;;;2.63;;
3547;SDS011;1788;49.400;11.092;2023-05-29T15:33:42;4.93;;;3.00;;
3547;SDS011;1788;49.400;11.092;2023-05-29T15:36:09;3.03;;;2.53;;
3547;SDS011;1788;49.400;11.092;2023-05-29T15:38:37;3.60;;;2.53;;
3547;SDS011;1788;49.400;11.092;2023-05-29T15:41:04;3.50;;;2.27;;
3547;SDS011;1788;49.400;11.092;2023-05-29T15:43:31;4.67;;;3.03;;
3547;SDS011;1788;49.400;11.092;2023-05-29T15:45:58;3.10;;;2.90;;
3547;SDS011;1788;49.400;11.092;2023-05-29T15:48:24;6.40;;;4.20;;